createdAt,value
2023-05-08T00:02:46.612Z,14.80
2023-05-08T00:05:48.318Z,14.91
2023-05-08T00:08:51.457Z,14.89
2023-05-08T00:11:53.360Z,14.92
2023-05-08T00:14:55.265Z,14.79
2023-05-08T00:17:57.238Z,14.74
2023-05-08T00:20:59.178Z,14.73
2023-05-08T00:24:02.398Z,14.74
2023-05-08T00:27:04.300Z,14.67
2023-05-08T00:30:07.724Z,14.78
2023-05-08T00:33:09.833Z,14.85
2023-05-08T00:36:13.999Z,14.87
2023-05-08T00:39:17.531Z,14.97
2023-05-08T00:42:19.473Z,15.00
2023-05-08T00:45:21.253Z,15.03
2023-05-08T00:48:24.545Z,15.06
2023-05-08T00:51:27.791Z,15.05
2023-05-08T00:54:33.327Z,15.05
2023-05-08T00:57:36.009Z,15.05
2023-05-08T01:00:42.150Z,15.09
2023-05-08T01:03:47.431Z,15.08
2023-05-08T01:06:49.610Z,15.03
2023-05-08T01:09:52.753Z,15.07
2023-05-08T01:13:04.900Z,15.07
2023-05-08T01:16:14.386Z,15.12
2023-05-08T01:19:52.756Z,15.01
2023-05-08T01:23:15.252Z,15.07
2023-05-08T01:26:51.793Z,15.13
2023-05-08T01:30:24.874Z,15.10
2023-05-08T01:33:36.145Z,15.06
2023-05-08T01:36:46.296Z,14.97
2023-05-08T01:39:55.730Z,14.97
2023-05-08T01:43:08.274Z,15.01
2023-05-08T01:46:14.817Z,14.98
2023-05-08T01:49:24.197Z,14.91
2023-05-08T01:52:31.928Z,14.92
2023-05-08T01:55:37.269Z,14.89
2023-05-08T01:58:41.769Z,15.03
2023-05-08T02:01:46.249Z,15.01
2023-05-08T02:04:52.405Z,15.06
2023-05-08T02:07:55.305Z,14.98
2023-05-08T02:10:59.148Z,14.85
2023-05-08T02:14:02.822Z,14.80
2023-05-08T02:17:07.249Z,14.70
2023-05-08T02:20:15.001Z,14.74
2023-05-08T02:23:18.685Z,14.82
2023-05-08T02:26:22.339Z,14.75
2023-05-08T02:29:25.191Z,14.68
2023-05-08T02:32:27.671Z,14.69
2023-05-08T02:35:32.258Z,14.76
2023-05-08T02:38:37.739Z,14.75
2023-05-08T02:41:41.808Z,14.63
2023-05-08T02:44:43.738Z,14.62
2023-05-08T02:47:52.059Z,14.64
2023-05-08T02:51:00.524Z,14.65
2023-05-08T02:54:10.135Z,14.74
2023-05-08T02:57:21.648Z,14.67
2023-05-08T03:00:29.010Z,14.75
2023-05-08T03:03:37.964Z,14.70
2023-05-08T03:06:45.676Z,14.62
2023-05-08T03:09:50.782Z,14.61
2023-05-08T03:12:55.352Z,14.61
2023-05-08T03:16:02.120Z,14.60
2023-05-08T03:19:07.415Z,14.57
2023-05-08T03:22:11.753Z,14.61
2023-05-08T03:25:16.733Z,14.56
2023-05-08T03:28:21.471Z,14.60
2023-05-08T03:31:25.614Z,14.58
2023-05-08T03:34:29.752Z,14.56
2023-05-08T03:37:33.454Z,14.56
2023-05-08T03:40:44.541Z,14.50
2023-05-08T03:43:47.256Z,14.53
2023-05-08T03:46:51.063Z,14.45
2023-05-08T03:49:54.115Z,14.43
2023-05-08T03:52:58.286Z,14.41
2023-05-08T03:56:01.894Z,14.48
2023-05-08T03:59:10.554Z,14.48
2023-05-08T04:02:22.022Z,14.46
2023-05-08T04:05:28.539Z,14.41
2023-05-08T04:08:39.085Z,14.48
2023-05-08T04:11:44.297Z,14.45
2023-05-08T04:14:55.576Z,14.40
2023-05-08T04:18:02.561Z,14.43
2023-05-08T04:21:06.928Z,14.53
2023-05-08T04:24:14.966Z,14.40
2023-05-08T04:27:19.146Z,14.40
2023-05-08T04:30:21.324Z,14.44
2023-05-08T04:33:25.083Z,14.46
2023-05-08T04:36:29.447Z,14.41
2023-05-08T04:39:33.896Z,14.48
2023-05-08T04:42:36.863Z,14.48
2023-05-08T04:45:39.551Z,14.43
2023-05-08T04:48:41.407Z,14.57
2023-05-08T04:51:43.369Z,14.45
2023-05-08T04:54:46.802Z,14.38
2023-05-08T04:57:48.646Z,14.31
2023-05-08T05:00:50.828Z,14.38
2023-05-08T05:03:52.976Z,14.35
2023-05-08T05:06:55.079Z,14.41
2023-05-08T05:10:00.066Z,14.49
2023-05-08T05:13:02.522Z,14.43
2023-05-08T05:16:05.004Z,14.33
2023-05-08T05:19:07.131Z,14.45
2023-05-08T05:22:09.546Z,14.35
2023-05-08T05:25:13.371Z,14.28
2023-05-08T05:28:15.588Z,14.42
2023-05-08T05:31:17.690Z,14.44
2023-05-08T05:34:19.762Z,14.54
2023-05-08T05:37:21.543Z,14.55
2023-05-08T05:40:25.506Z,14.49
2023-05-08T05:43:28.235Z,14.48
2023-05-08T05:46:32.726Z,14.62
2023-05-08T05:49:37.547Z,14.62
2023-05-08T05:52:39.457Z,14.44
2023-05-08T05:55:42.658Z,14.51
2023-05-08T05:58:45.452Z,14.55
2023-05-08T06:01:47.764Z,14.44
2023-05-08T06:04:51.310Z,14.54
2023-05-08T06:07:53.102Z,14.60
2023-05-08T06:10:56.713Z,14.51
2023-05-08T06:13:58.514Z,14.40
2023-05-08T06:17:00.599Z,14.55
2023-05-08T06:20:02.538Z,14.46
2023-05-08T06:23:04.417Z,14.57
2023-05-08T06:26:07.491Z,14.53
2023-05-08T06:29:09.304Z,14.64
2023-05-08T06:32:11.122Z,14.67
2023-05-08T06:35:13.421Z,14.57
2023-05-08T06:38:16.392Z,14.66
2023-05-08T06:41:19.578Z,14.49
2023-05-08T06:44:21.471Z,14.46
2023-05-08T06:47:23.281Z,14.63
2023-05-08T06:50:25.109Z,14.74
2023-05-08T06:53:26.805Z,14.83
2023-05-08T06:56:29.824Z,14.88
2023-05-08T06:59:32.124Z,14.66
2023-05-08T07:02:33.969Z,14.92
2023-05-08T07:05:35.898Z,14.99
2023-05-08T07:08:37.802Z,14.97
2023-05-08T07:11:40.937Z,15.00
2023-05-08T07:14:43.201Z,14.90
2023-05-08T07:17:45.087Z,15.17
2023-05-08T07:20:47.134Z,15.25
2023-05-08T07:23:51.552Z,15.26
2023-05-08T07:26:54.883Z,15.17
2023-05-08T07:29:58.411Z,15.29
2023-05-08T07:33:00.184Z,15.31
2023-05-08T07:36:01.983Z,15.24
2023-05-08T07:39:04.742Z,15.28
2023-05-08T07:42:07.891Z,15.28
2023-05-08T07:45:12.001Z,15.47
2023-05-08T07:48:33.836Z,15.69
2023-05-08T07:51:35.535Z,15.81
2023-05-08T07:54:37.981Z,15.60
2023-05-08T07:57:42.765Z,15.60
2023-05-08T08:00:44.892Z,15.46
2023-05-08T08:03:47.015Z,15.64
2023-05-08T08:06:48.799Z,15.59
2023-05-08T08:09:50.633Z,15.32
2023-05-08T08:12:54.027Z,15.53
2023-05-08T08:15:57.109Z,15.63
2023-05-08T08:18:59.592Z,15.91
2023-05-08T08:22:01.619Z,15.99
2023-05-08T08:25:03.680Z,16.03
2023-05-08T08:28:06.769Z,16.23
2023-05-08T08:31:08.543Z,16.26
2023-05-08T08:34:10.557Z,16.37
2023-05-08T08:37:15.198Z,16.50
2023-05-08T08:40:17.065Z,16.41
2023-05-08T08:43:20.096Z,16.51
2023-05-08T08:46:25.765Z,16.45
2023-05-08T08:49:31.843Z,16.59
2023-05-08T08:52:41.083Z,16.60
2023-05-08T08:55:45.887Z,16.70
2023-05-08T08:58:53.682Z,16.95
2023-05-08T09:01:58.699Z,17.16
2023-05-08T09:05:00.983Z,17.23
2023-05-08T09:08:02.993Z,17.13
2023-05-08T09:11:04.957Z,17.83
2023-05-08T09:14:08.764Z,17.45
2023-05-08T09:17:10.588Z,17.44
2023-05-08T09:20:14.886Z,16.83
2023-05-08T09:23:17.474Z,16.82
2023-05-08T09:26:27.718Z,17.15
2023-05-08T09:29:30.860Z,17.48
2023-05-08T09:32:34.093Z,17.41
2023-05-08T09:35:37.029Z,17.19
2023-05-08T09:38:40.638Z,17.77
2023-05-08T09:41:57.674Z,17.40
2023-05-08T09:45:02.383Z,17.33
2023-05-08T09:48:04.631Z,17.46
2023-05-08T09:51:07.312Z,17.48
2023-05-08T09:54:17.923Z,17.68
2023-05-08T09:57:19.944Z,17.55
2023-05-08T10:00:24.650Z,17.79
2023-05-08T10:03:46.635Z,17.91
2023-05-08T10:06:57.295Z,17.81
2023-05-08T10:10:00.641Z,17.71
2023-05-08T10:13:02.469Z,18.07
2023-05-08T10:16:07.743Z,18.42
2023-05-08T10:19:14.499Z,18.32
2023-05-08T10:22:19.009Z,18.51
2023-05-08T10:25:23.249Z,18.26
2023-05-08T10:28:36.924Z,18.43
2023-05-08T10:31:44.371Z,18.33
2023-05-08T10:34:53.639Z,18.08
2023-05-08T10:37:57.006Z,18.13
2023-05-08T10:41:01.314Z,18.02
2023-05-08T10:44:03.707Z,18.15
2023-05-08T10:47:16.655Z,17.67
2023-05-08T10:50:37.570Z,17.44
2023-05-08T10:53:44.215Z,17.62
2023-05-08T10:56:46.092Z,17.33
2023-05-08T10:59:47.848Z,17.51
2023-05-08T11:02:51.238Z,18.09
2023-05-08T11:05:55.184Z,18.50
2023-05-08T11:08:57.881Z,18.89
2023-05-08T11:12:15.982Z,18.76
2023-05-08T11:15:36.254Z,18.89
2023-05-08T11:19:17.514Z,18.38
2023-05-08T11:22:27.218Z,18.95
2023-05-08T11:25:43.400Z,18.70
2023-05-08T11:28:56.705Z,18.81
2023-05-08T11:31:58.605Z,18.41
2023-05-08T11:35:02.299Z,18.60
2023-05-08T11:38:36.094Z,18.34
2023-05-08T11:41:39.162Z,18.41
2023-05-08T11:44:41.116Z,18.84
2023-05-08T11:47:44.025Z,18.19
2023-05-08T11:50:47.192Z,18.47
2023-05-08T11:53:49.077Z,18.60
2023-05-08T11:56:56.967Z,18.50
2023-05-08T12:00:00.264Z,18.56
2023-05-08T12:03:07.271Z,18.92
2023-05-08T12:06:11.941Z,18.30
2023-05-08T12:09:15.416Z,18.49
2023-05-08T12:12:17.150Z,18.36
2023-05-08T12:15:18.996Z,18.43
2023-05-08T12:19:14.349Z,18.09
2023-05-08T12:22:16.419Z,18.09
2023-05-08T12:25:19.262Z,18.00
2023-05-08T12:28:21.403Z,18.18
2023-05-08T12:31:23.952Z,18.11
2023-05-08T12:34:27.538Z,18.09
2023-05-08T12:37:29.491Z,17.87
2023-05-08T12:40:32.764Z,17.65
2023-05-08T12:43:35.555Z,17.66
2023-05-08T12:46:45.701Z,17.33
2023-05-08T12:49:50.066Z,17.00
2023-05-08T12:52:52.122Z,16.92
2023-05-08T12:55:56.107Z,16.87
2023-05-08T12:58:59.687Z,16.76
2023-05-08T13:02:01.769Z,16.79
2023-05-08T13:05:05.774Z,16.69
2023-05-08T13:08:10.789Z,16.80
2023-05-08T13:11:12.549Z,16.84
2023-05-08T13:14:14.384Z,17.10
2023-05-08T13:17:17.869Z,16.58
2023-05-08T13:20:21.256Z,16.53
2023-05-08T13:23:23.731Z,16.86
2023-05-08T13:26:26.282Z,17.68
2023-05-08T13:29:28.231Z,17.81
2023-05-08T13:32:30.156Z,17.87
2023-05-08T13:35:33.776Z,17.70
2023-05-08T13:38:35.710Z,18.02
2023-05-08T13:41:37.565Z,18.20
2023-05-08T13:44:39.392Z,18.19
2023-05-08T13:47:42.010Z,17.98
2023-05-08T13:50:45.468Z,17.86
2023-05-08T13:53:47.128Z,18.38
2023-05-08T13:56:49.830Z,18.75
2023-05-08T13:59:52.256Z,18.48
2023-05-08T14:02:54.159Z,18.13
2023-05-08T14:05:57.308Z,18.01
2023-05-08T14:08:59.048Z,18.03
2023-05-08T14:12:00.734Z,18.12
2023-05-08T14:15:04.535Z,18.11
2023-05-08T14:18:06.456Z,17.97
2023-05-08T14:21:09.747Z,18.03
2023-05-08T14:24:11.809Z,17.94
2023-05-08T14:27:13.794Z,18.30
2023-05-08T14:30:15.934Z,19.04
2023-05-08T14:33:19.357Z,18.83
2023-05-08T14:36:22.890Z,18.94
2023-05-08T14:39:24.652Z,18.73
2023-05-08T14:42:26.364Z,19.09
2023-05-08T14:45:48.291Z,19.00
2023-05-08T14:48:50.459Z,18.79
2023-05-08T14:51:53.866Z,19.44
2023-05-08T14:54:55.748Z,19.46
2023-05-08T14:57:58.120Z,19.30
2023-05-08T15:00:59.872Z,19.82
2023-05-08T15:04:01.983Z,21.33
2023-05-08T15:07:05.580Z,20.57
2023-05-08T15:10:08.132Z,19.99
2023-05-08T15:13:09.967Z,20.15
2023-05-08T15:16:11.833Z,19.36
2023-05-08T15:19:13.705Z,18.71
2023-05-08T15:22:17.775Z,18.71
2023-05-08T15:25:19.903Z,18.97
2023-05-08T15:28:21.576Z,19.18
2023-05-08T15:31:23.438Z,19.12
2023-05-08T15:34:29.066Z,19.06
2023-05-08T15:37:37.355Z,18.72
2023-05-08T15:40:42.377Z,18.49
2023-05-08T15:43:46.297Z,18.72
2023-05-08T15:46:48.055Z,18.63
2023-05-08T15:49:50.075Z,18.84
2023-05-08T15:52:53.098Z,18.65
2023-05-08T15:55:55.695Z,18.79
2023-05-08T15:58:57.432Z,19.03
2023-05-08T16:01:59.230Z,19.04
2023-05-08T16:05:00.873Z,18.96
2023-05-08T16:08:05.899Z,19.44
2023-05-08T16:11:31.401Z,19.08
2023-05-08T16:14:33.107Z,18.99
2023-05-08T16:17:35.161Z,19.06
2023-05-08T16:20:39.788Z,19.17
2023-05-08T16:23:43.668Z,18.94
2023-05-08T16:26:45.409Z,18.65
2023-05-08T16:29:47.309Z,19.15
2023-05-08T16:32:49.125Z,19.63
2023-05-08T16:35:51.325Z,20.04
2023-05-08T16:38:54.630Z,20.70
2023-05-08T16:41:56.491Z,20.19
2023-05-08T16:44:58.173Z,20.10
2023-05-08T16:48:00.277Z,20.25
2023-05-08T16:51:02.390Z,19.67
2023-05-08T16:54:06.346Z,21.01
2023-05-08T16:57:08.016Z,21.58
2023-05-08T17:00:10.896Z,20.21
2023-05-08T17:03:12.815Z,19.38
2023-05-08T17:06:14.551Z,19.07
2023-05-08T17:09:18.470Z,18.80
2023-05-08T17:12:20.771Z,18.92
2023-05-08T17:15:22.837Z,18.50
2023-05-08T17:18:24.756Z,18.68
2023-05-08T17:21:26.648Z,18.77
2023-05-08T17:24:30.955Z,19.37
2023-05-08T17:28:37.148Z,19.50
2023-05-08T17:31:38.948Z,19.63
2023-05-08T17:34:43.772Z,19.65
2023-05-08T17:37:45.968Z,19.35
2023-05-08T17:40:47.788Z,18.46
2023-05-08T17:43:52.328Z,18.04
2023-05-08T17:46:54.030Z,18.10
2023-05-08T17:49:56.047Z,18.00
2023-05-08T17:52:58.145Z,17.78
2023-05-08T17:56:00.610Z,17.71
2023-05-08T17:59:03.832Z,17.72
2023-05-08T18:02:06.125Z,17.81
2023-05-08T18:05:11.746Z,17.76
2023-05-08T18:08:13.848Z,17.65
2023-05-08T18:11:17.543Z,17.64
2023-05-08T18:14:20.565Z,17.45
2023-05-08T18:17:22.824Z,17.40
2023-05-08T18:20:24.820Z,17.34
2023-05-08T18:23:27.006Z,17.09
2023-05-08T18:26:29.139Z,16.93
2023-05-08T18:29:32.303Z,16.85
2023-05-08T18:32:35.362Z,16.61
2023-05-08T18:35:37.211Z,16.51
2023-05-08T18:38:42.532Z,16.37
2023-05-08T18:41:45.068Z,16.32
2023-05-08T18:44:48.703Z,16.26
2023-05-08T18:47:57.054Z,16.17
2023-05-08T18:50:59.029Z,16.12
2023-05-08T18:54:01.252Z,16.09
2023-05-08T18:57:03.999Z,15.98
2023-05-08T19:00:08.915Z,16.01
2023-05-08T19:03:11.106Z,15.94
2023-05-08T19:06:15.335Z,15.98
2023-05-08T19:09:17.095Z,15.98
2023-05-08T19:12:19.188Z,15.96
2023-05-08T19:15:22.721Z,15.84
2023-05-08T19:18:24.658Z,15.85
2023-05-08T19:21:26.591Z,15.83
2023-05-08T19:24:29.934Z,15.82
2023-05-08T19:27:32.132Z,15.71
2023-05-08T19:30:35.316Z,15.78
2023-05-08T19:33:37.270Z,15.73
2023-05-08T19:36:39.071Z,15.68
2023-05-08T19:39:43.959Z,15.65
2023-05-08T19:42:46.037Z,15.62
2023-05-08T19:45:49.342Z,15.53
2023-05-08T19:48:51.285Z,15.67
2023-05-08T19:51:53.152Z,15.83
2023-05-08T19:54:56.692Z,16.02
2023-05-08T19:57:58.409Z,16.15
2023-05-08T20:01:01.795Z,16.17
2023-05-08T20:04:03.766Z,16.15
2023-05-08T20:07:06.252Z,16.10
2023-05-08T20:10:09.519Z,16.03
2023-05-08T20:13:11.483Z,16.18
2023-05-08T20:16:14.953Z,16.18
2023-05-08T20:19:18.867Z,16.26
2023-05-08T20:22:21.544Z,16.28
2023-05-08T20:25:23.794Z,16.27
2023-05-08T20:28:26.094Z,16.37
2023-05-08T20:31:30.757Z,16.33
2023-05-08T20:34:32.869Z,16.36
2023-05-08T20:37:34.661Z,16.33
2023-05-08T20:40:36.806Z,16.43
2023-05-08T20:43:38.681Z,16.35
2023-05-08T20:46:41.780Z,16.40
2023-05-08T20:50:03.669Z,16.41
2023-05-08T20:53:05.613Z,16.43
2023-05-08T20:56:07.838Z,16.45
2023-05-08T20:59:09.687Z,16.37
2023-05-08T21:02:12.807Z,16.47
2023-05-08T21:05:14.663Z,16.50
2023-05-08T21:08:16.686Z,16.50
2023-05-08T21:11:18.447Z,16.47
2023-05-08T21:14:20.444Z,16.38
2023-05-08T21:17:23.893Z,16.45
2023-05-08T21:20:25.711Z,16.36
2023-05-08T21:23:29.732Z,16.45
2023-05-08T21:26:31.537Z,16.41
2023-05-08T21:29:33.436Z,16.34
2023-05-08T21:32:36.521Z,16.42
2023-05-08T21:35:38.300Z,16.37
2023-05-08T21:38:40.886Z,16.35
2023-05-08T21:41:43.335Z,16.20
2023-05-08T21:44:45.112Z,16.22
2023-05-08T21:47:48.412Z,16.26
2023-05-08T21:50:50.219Z,16.30
2023-05-08T21:53:51.953Z,16.43
2023-05-08T21:56:53.762Z,16.35
2023-05-08T21:59:55.594Z,16.29
2023-05-08T22:02:59.043Z,16.26
2023-05-08T22:06:00.834Z,16.20
2023-05-08T22:09:03.151Z,16.11
2023-05-08T22:12:06.402Z,16.02
2023-05-08T22:15:18.050Z,16.01
2023-05-08T22:18:25.124Z,16.00
2023-05-08T22:21:29.553Z,15.89
2023-05-08T22:24:31.397Z,15.80
2023-05-08T22:27:33.265Z,15.90
2023-05-08T22:30:35.000Z,15.88
2023-05-08T22:33:38.022Z,15.92
2023-05-08T22:36:39.971Z,15.86
2023-05-08T22:39:41.806Z,15.78
2023-05-08T22:42:47.243Z,15.70
2023-05-08T22:45:49.088Z,15.88
2023-05-08T22:48:54.916Z,15.84
2023-05-08T22:51:56.955Z,15.92
2023-05-08T22:54:58.596Z,15.94
2023-05-08T22:58:00.696Z,15.84
2023-05-08T23:01:02.622Z,15.67
2023-05-08T23:04:05.938Z,15.65
2023-05-08T23:07:07.912Z,15.70
2023-05-08T23:10:10.957Z,15.71
2023-05-08T23:13:12.907Z,15.57
2023-05-08T23:16:14.693Z,15.65
2023-05-08T23:19:17.856Z,15.59
2023-05-08T23:22:19.495Z,15.62
2023-05-08T23:25:21.231Z,15.61
2023-05-08T23:28:23.194Z,15.63
2023-05-08T23:31:25.220Z,15.63
2023-05-08T23:34:28.395Z,15.62
2023-05-08T23:37:30.102Z,15.61
2023-05-08T23:40:31.784Z,15.60
2023-05-08T23:43:33.589Z,15.59
2023-05-08T23:46:35.464Z,15.55
2023-05-08T23:49:38.675Z,15.42
2023-05-08T23:52:41.337Z,15.42
2023-05-08T23:55:43.082Z,15.40
2023-05-08T23:58:44.882Z,15.44
